Time;durP1;ratioP1;P1;durP2;ratioP2;P2;SDS_P1;SDS_P2;PMS_P1;PMS_P2;Temp;Humidity;BMP_temperature;BMP_pressure;BME280_temperature;BME280_humidity;BME280_pressure;Samples;Min_cycle;Max_cycle;Signal;HPM_P1;HPM_P2
2019/10/07 00:00:45;;;;;;;3.6;3.1;;;;;;;11.04;100;94618.02;;;;
2019/10/07 00:01:47;;;;;;;3.6;3.1;;;;;;;11.04;100;94618.02;;;;
2019/10/07 00:02:48;;;;;;;3.6;3.1;;;;;;;11.04;100;94618.02;;;;
2019/10/07 00:03:49;;;;;;;3.6;3.1;;;;;;;11.04;100;94618.02;;;;
2019/10/07 00:04:50;;;;;;;3.6;3.1;;;;;;;11.04;100;94618.02;;;;
2019/10/07 00:05:51;;;;;;;2.65;2.45;;;;;;;11.04;100;94626.26;;;;
2019/10/07 00:06:52;;;;;;;2.65;2.45;;;;;;;11.04;100;94626.26;;;;
2019/10/07 00:07:53;;;;;;;2.65;2.45;;;;;;;11.04;100;94626.26;;;;
2019/10/07 00:08:55;;;;;;;2.65;2.45;;;;;;;11.04;100;94626.26;;;;
2019/10/07 00:09:56;;;;;;;2.65;2.45;;;;;;;11.04;100;94626.26;;;;
2019/10/07 00:10:57;;;;;;;2.65;2.45;;;;;;;11.04;100;94626.26;;;;
2019/10/07 00:11:58;;;;;;;2.65;2.45;;;;;;;11.04;100;94626.26;;;;
2019/10/07 00:12:59;;;;;;;2.65;2.45;;;;;;;11.04;100;94626.26;;;;
2019/10/07 00:14:01;;;;;;;2.65;2.45;;;;;;;11.04;100;94626.26;;;;
2019/10/07 00:15:02;;;;;;;2.65;2.45;;;;;;;11.04;100;94626.26;;;;
2019/10/07 00:16:04;;;;;;;3.2;2.9;;;;;;;11.08;100;94634.94;;;;
2019/10/07 00:17:06;;;;;;;3.2;2.9;;;;;;;11.08;100;94634.94;;;;
2019/10/07 00:18:07;;;;;;;3.2;2.9;;;;;;;11.08;100;94634.94;;;;
2019/10/07 00:19:08;;;;;;;3.2;2.9;;;;;;;11.08;100;94634.94;;;;
2019/10/07 00:20:09;;;;;;;3.2;2.9;;;;;;;11.08;100;94634.94;;;;
2019/10/07 00:21:10;;;;;;;3.2;2.9;;;;;;;11.08;100;94634.94;;;;
2019/10/07 00:22:11;;;;;;;3.2;2.9;;;;;;;11.08;100;94634.94;;;;
2019/10/07 00:23:13;;;;;;;3.2;2.9;;;;;;;11.08;100;94634.94;;;;
2019/10/07 00:24:14;;;;;;;3.2;2.9;;;;;;;11.08;100;94634.94;;;;
2019/10/07 00:25:15;;;;;;;3.2;2.9;;;;;;;11.08;100;94634.94;;;;
2019/10/07 00:26:16;;;;;;;3.2;2.9;;;;;;;11.08;100;94634.94;;;;
2019/10/07 00:27:17;;;;;;;3.55;2.8;;;;;;;11.07;100;94644.12;;;;
2019/10/07 00:28:18;;;;;;;3.55;2.8;;;;;;;11.07;100;94644.12;;;;
2019/10/07 00:29:20;;;;;;;3.55;2.8;;;;;;;11.07;100;94644.12;;;;
2019/10/07 00:30:21;;;;;;;3.55;2.8;;;;;;;11.07;100;94644.12;;;;
2019/10/07 00:32:26;;;;;;;3.55;2.8;;;;;;;11.07;100;94644.12;;;;
2019/10/07 00:33:27;;;;;;;3.55;2.8;;;;;;;11.07;100;94644.12;;;;
2019/10/07 00:34:28;;;;;;;3.55;2.8;;;;;;;11.07;100;94644.12;;;;
2019/10/07 00:35:29;;;;;;;3.55;2.8;;;;;;;11.07;100;94644.12;;;;
2019/10/07 00:36:30;;;;;;;3.55;2.8;;;;;;;11.07;100;94644.12;;;;
2019/10/07 00:37:32;;;;;;;2.85;2.45;;;;;;;11.09;100;94660.91;;;;
2019/10/07 00:38:33;;;;;;;2.85;2.45;;;;;;;11.09;100;94660.91;;;;
2019/10/07 00:39:34;;;;;;;2.85;2.45;;;;;;;11.09;100;94660.91;;;;
2019/10/07 00:40:35;;;;;;;2.85;2.45;;;;;;;11.09;100;94660.91;;;;
2019/10/07 00:41:37;;;;;;;2.85;2.45;;;;;;;11.09;100;94660.91;;;;
2019/10/07 00:42:38;;;;;;;2.85;2.45;;;;;;;11.09;100;94660.91;;;;
2019/10/07 00:43:39;;;;;;;2.85;2.45;;;;;;;11.09;100;94660.91;;;;
2019/10/07 00:44:40;;;;;;;2.85;2.45;;;;;;;11.09;100;94660.91;;;;
2019/10/07 00:45:41;;;;;;;2.85;2.45;;;;;;;11.09;100;94660.91;;;;
2019/10/07 00:46:43;;;;;;;2.85;2.45;;;;;;;11.09;100;94660.91;;;;
2019/10/07 00:47:44;;;;;;;4.1;3.15;;;;;;;11.06;100;94675.87;;;;
2019/10/07 00:48:45;;;;;;;4.1;3.15;;;;;;;11.06;100;94675.87;;;;
2019/10/07 00:49:46;;;;;;;4.1;3.15;;;;;;;11.06;100;94675.87;;;;
2019/10/07 00:50:47;;;;;;;4.1;3.15;;;;;;;11.06;100;94675.87;;;;
2019/10/07 00:51:48;;;;;;;4.1;3.15;;;;;;;11.06;100;94675.87;;;;
2019/10/07 00:52:50;;;;;;;4.1;3.15;;;;;;;11.06;100;94675.87;;;;
2019/10/07 00:53:51;;;;;;;4.1;3.15;;;;;;;11.06;100;94675.87;;;;
2019/10/07 00:54:52;;;;;;;4.1;3.15;;;;;;;11.06;100;94675.87;;;;
2019/10/07 00:55:53;;;;;;;4.1;3.15;;;;;;;11.06;100;94675.87;;;;
2019/10/07 00:56:54;;;;;;;4.1;3.15;;;;;;;11.06;100;94675.87;;;;
2019/10/07 00:57:55;;;;;;;4.1;3.15;;;;;;;11.06;100;94675.87;;;;
2019/10/07 00:58:56;;;;;;;5.1;4;;;;;;;11.1;100;94687.78;;;;
2019/10/07 00:59:57;;;;;;;5.1;4;;;;;;;11.1;100;94687.78;;;;
2019/10/07 01:00:58;;;;;;;5.1;4;;;;;;;11.1;100;94687.78;;;;
2019/10/07 01:02:00;;;;;;;5.1;4;;;;;;;11.1;100;94687.78;;;;
2019/10/07 01:03:01;;;;;;;5.1;4;;;;;;;11.1;100;94687.78;;;;
2019/10/07 01:04:03;;;;;;;5.1;4;;;;;;;11.1;100;94687.78;;;;
2019/10/07 01:05:04;;;;;;;5.1;4;;;;;;;11.1;100;94687.78;;;;
2019/10/07 01:06:06;;;;;;;5.1;4;;;;;;;11.1;100;94687.78;;;;
2019/10/07 01:07:07;;;;;;;5.1;4;;;;;;;11.1;100;94687.78;;;;
2019/10/07 01:08:08;;;;;;;5.1;4;;;;;;;11.1;100;94687.78;;;;
2019/10/07 01:09:09;;;;;;;9.4;7.05;;;;;;;11;100;94695.37;;;;
2019/10/07 01:10:11;;;;;;;9.4;7.05;;;;;;;11;100;94695.37;;;;
2019/10/07 01:11:12;;;;;;;9.4;7.05;;;;;;;11;100;94695.37;;;;
2019/10/07 01:12:13;;;;;;;9.4;7.05;;;;;;;11;100;94695.37;;;;
2019/10/07 01:13:15;;;;;;;9.4;7.05;;;;;;;11;100;94695.37;;;;
2019/10/07 01:14:16;;;;;;;9.4;7.05;;;;;;;11;100;94695.37;;;;
2019/10/07 01:15:17;;;;;;;9.4;7.05;;;;;;;11;100;94695.37;;;;
2019/10/07 01:16:18;;;;;;;9.4;7.05;;;;;;;11;100;94695.37;;;;
2019/10/07 01:17:20;;;;;;;9.4;7.05;;;;;;;11;100;94695.37;;;;
2019/10/07 01:18:21;;;;;;;9.4;7.05;;;;;;;11;100;94695.37;;;;
2019/10/07 01:19:23;;;;;;;10.75;8;;;;;;;10.8;100;94724.71;;;;
2019/10/07 01:20:24;;;;;;;10.75;8;;;;;;;10.8;100;94724.71;;;;
2019/10/07 01:21:25;;;;;;;10.75;8;;;;;;;10.8;100;94724.71;;;;
2019/10/07 01:22:26;;;;;;;10.75;8;;;;;;;10.8;100;94724.71;;;;
2019/10/07 01:23:27;;;;;;;10.75;8;;;;;;;10.8;100;94724.71;;;;
2019/10/07 01:24:28;;;;;;;10.75;8;;;;;;;10.8;100;94724.71;;;;
2019/10/07 01:25:30;;;;;;;10.75;8;;;;;;;10.8;100;94724.71;;;;
2019/10/07 01:26:31;;;;;;;10.75;8;;;;;;;10.8;100;94724.71;;;;
2019/10/07 01:27:32;;;;;;;10.75;8;;;;;;;10.8;100;94724.71;;;;
2019/10/07 01:28:33;;;;;;;10.75;8;;;;;;;10.8;100;94724.71;;;;
2019/10/07 01:29:34;;;;;;;10.75;8;;;;;;;10.8;100;94724.71;;;;
2019/10/07 01:30:36;;;;;;;9.5;7.85;;;;;;;10.49;100;94736.68;;;;
2019/10/07 01:31:37;;;;;;;9.5;7.85;;;;;;;10.49;100;94736.68;;;;
2019/10/07 01:32:38;;;;;;;9.5;7.85;;;;;;;10.49;100;94736.68;;;;
2019/10/07 01:33:40;;;;;;;9.5;7.85;;;;;;;10.49;100;94736.68;;;;
2019/10/07 01:34:41;;;;;;;9.5;7.85;;;;;;;10.49;100;94736.68;;;;
2019/10/07 01:35:42;;;;;;;9.5;7.85;;;;;;;10.49;100;94736.68;;;;
2019/10/07 01:36:43;;;;;;;9.5;7.85;;;;;;;10.49;100;94736.68;;;;
2019/10/07 01:37:45;;;;;;;9.5;7.85;;;;;;;10.49;100;94736.68;;;;
2019/10/07 01:38:46;;;;;;;9.5;7.85;;;;;;;10.49;100;94736.68;;;;
2019/10/07 01:39:47;;;;;;;9.5;7.85;;;;;;;10.49;100;94736.68;;;;
2019/10/07 01:40:48;;;;;;;6.750001;5.45;;;;;;;10.23;100;94761.15;;;;
2019/10/07 01:41:49;;;;;;;6.750001;5.45;;;;;;;10.23;100;94761.15;;;;
2019/10/07 01:42:51;;;;;;;6.750001;5.45;;;;;;;10.23;100;94761.15;;;;
2019/10/07 01:43:52;;;;;;;6.750001;5.45;;;;;;;10.23;100;94761.15;;;;
2019/10/07 01:44:53;;;;;;;6.750001;5.45;;;;;;;10.23;100;94761.15;;;;
2019/10/07 01:45:55;;;;;;;6.750001;5.45;;;;;;;10.23;100;94761.15;;;;
2019/10/07 01:46:56;;;;;;;6.750001;5.45;;;;;;;10.23;100;94761.15;;;;
2019/10/07 01:47:57;;;;;;;6.750001;5.45;;;;;;;10.23;100;94761.15;;;;
2019/10/07 01:48:58;;;;;;;6.750001;5.45;;;;;;;10.23;100;94761.15;;;;
2019/10/07 01:50:00;;;;;;;6.750001;5.45;;;;;;;10.23;100;94761.15;;;;
2019/10/07 01:51:01;;;;;;;6.750001;5.45;;;;;;;10.23;100;94761.15;;;;
2019/10/07 01:52:02;;;;;;;4.3;3.9;;;;;;;9.87;100;94783.17;;;;
2019/10/07 01:53:04;;;;;;;4.3;3.9;;;;;;;9.87;100;94783.17;;;;
2019/10/07 01:54:05;;;;;;;4.3;3.9;;;;;;;9.87;100;94783.17;;;;
2019/10/07 01:55:06;;;;;;;4.3;3.9;;;;;;;9.87;100;94783.17;;;;
2019/10/07 01:56:09;;;;;;;4.3;3.9;;;;;;;9.87;100;94783.17;;;;
2019/10/07 01:57:10;;;;;;;4.3;3.9;;;;;;;9.87;100;94783.17;;;;
2019/10/07 01:58:11;;;;;;;4.3;3.9;;;;;;;9.87;100;94783.17;;;;
2019/10/07 01:59:12;;;;;;;4.3;3.9;;;;;;;9.87;100;94783.17;;;;
2019/10/07 02:00:14;;;;;;;4.3;3.9;;;;;;;9.87;100;94783.17;;;;
2019/10/07 02:01:17;;;;;;;4.3;3.9;;;;;;;9.87;100;94783.17;;;;
2019/10/07 02:02:18;;;;;;;4.9;4.4;;;;;;;9.56;100;94820.89;;;;
2019/10/07 02:03:19;;;;;;;4.9;4.4;;;;;;;9.56;100;94820.89;;;;
2019/10/07 02:04:20;;;;;;;4.9;4.4;;;;;;;9.56;100;94820.89;;;;
2019/10/07 02:05:22;;;;;;;4.9;4.4;;;;;;;9.56;100;94820.89;;;;
2019/10/07 02:06:23;;;;;;;4.9;4.4;;;;;;;9.56;100;94820.89;;;;
2019/10/07 02:07:24;;;;;;;4.9;4.4;;;;;;;9.56;100;94820.89;;;;
2019/10/07 02:08:25;;;;;;;4.9;4.4;;;;;;;9.56;100;94820.89;;;;
2019/10/07 02:09:26;;;;;;;4.9;4.4;;;;;;;9.56;100;94820.89;;;;
2019/10/07 02:10:28;;;;;;;4.9;4.4;;;;;;;9.56;100;94820.89;;;;
2019/10/07 02:11:29;;;;;;;4.9;4.4;;;;;;;9.56;100;94820.89;;;;
2019/10/07 02:12:30;;;;;;;4.3;3.9;;;;;;;9.31;100;94838.84;;;;
2019/10/07 02:13:32;;;;;;;4.3;3.9;;;;;;;9.31;100;94838.84;;;;
2019/10/07 02:14:34;;;;;;;4.3;3.9;;;;;;;9.31;100;94838.84;;;;
2019/10/07 02:15:35;;;;;;;4.3;3.9;;;;;;;9.31;100;94838.84;;;;
2019/10/07 02:16:36;;;;;;;4.3;3.9;;;;;;;9.31;100;94838.84;;;;
2019/10/07 02:17:37;;;;;;;4.3;3.9;;;;;;;9.31;100;94838.84;;;;
2019/10/07 02:18:38;;;;;;;4.3;3.9;;;;;;;9.31;100;94838.84;;;;
2019/10/07 02:19:44;;;;;;;4.3;3.9;;;;;;;9.31;100;94838.84;;;;
2019/10/07 02:20:53;;;;;;;4.3;3.9;;;;;;;9.31;100;94838.84;;;;
2019/10/07 02:21:55;;;;;;;4.3;3.9;;;;;;;9.31;100;94838.84;;;;
2019/10/07 02:22:56;;;;;;;4.3;3.9;;;;;;;9.31;100;94838.84;;;;
2019/10/07 02:23:57;;;;;;;4.5;3.8;;;;;;;9.16;100;94854.27;;;;
2019/10/07 02:24:59;;;;;;;4.5;3.8;;;;;;;9.16;100;94854.27;;;;
2019/10/07 02:26:00;;;;;;;4.5;3.8;;;;;;;9.16;100;94854.27;;;;
2019/10/07 02:27:01;;;;;;;4.5;3.8;;;;;;;9.16;100;94854.27;;;;
2019/10/07 02:28:02;;;;;;;4.5;3.8;;;;;;;9.16;100;94854.27;;;;
2019/10/07 02:29:03;;;;;;;4.5;3.8;;;;;;;9.16;100;94854.27;;;;
2019/10/07 02:30:05;;;;;;;4.5;3.8;;;;;;;9.16;100;94854.27;;;;
2019/10/07 02:31:08;;;;;;;4.5;3.8;;;;;;;9.16;100;94854.27;;;;
2019/10/07 02:32:10;;;;;;;4.5;3.8;;;;;;;9.16;100;94854.27;;;;
2019/10/07 02:33:11;;;;;;;4.5;3.8;;;;;;;9.16;100;94854.27;;;;
2019/10/07 02:34:12;;;;;;;3.8;3.4;;;;;;;8.97;100;94879.61;;;;
2019/10/07 02:35:13;;;;;;;3.8;3.4;;;;;;;8.97;100;94879.61;;;;
2019/10/07 02:36:14;;;;;;;3.8;3.4;;;;;;;8.97;100;94879.61;;;;
2019/10/07 02:37:16;;;;;;;3.8;3.4;;;;;;;8.97;100;94879.61;;;;
2019/10/07 02:38:17;;;;;;;3.8;3.4;;;;;;;8.97;100;94879.61;;;;
2019/10/07 02:39:18;;;;;;;3.8;3.4;;;;;;;8.97;100;94879.61;;;;
2019/10/07 02:40:19;;;;;;;3.8;3.4;;;;;;;8.97;100;94879.61;;;;
2019/10/07 02:41:20;;;;;;;3.8;3.4;;;;;;;8.97;100;94879.61;;;;
2019/10/07 02:42:28;;;;;;;3.8;3.4;;;;;;;8.97;100;94879.61;;;;
2019/10/07 02:43:36;;;;;;;3.8;3.4;;;;;;;8.97;100;94879.61;;;;
2019/10/07 02:44:38;;;;;;;4.15;3.8;;;;;;;8.85;100;94902.21;;;;
2019/10/07 02:45:40;;;;;;;4.15;3.8;;;;;;;8.85;100;94902.21;;;;
2019/10/07 02:46:41;;;;;;;4.15;3.8;;;;;;;8.85;100;94902.21;;;;
2019/10/07 02:47:42;;;;;;;4.15;3.8;;;;;;;8.85;100;94902.21;;;;
2019/10/07 02:48:46;;;;;;;4.15;3.8;;;;;;;8.85;100;94902.21;;;;
2019/10/07 02:49:49;;;;;;;4.15;3.8;;;;;;;8.85;100;94902.21;;;;
2019/10/07 02:50:52;;;;;;;4.15;3.8;;;;;;;8.85;100;94902.21;;;;
2019/10/07 02:51:57;;;;;;;4.15;3.8;;;;;;;8.85;100;94902.21;;;;
2019/10/07 02:53:08;;;;;;;4.15;3.8;;;;;;;8.85;100;94902.21;;;;
2019/10/07 02:54:15;;;;;;;4.15;3.8;;;;;;;8.85;100;94902.21;;;;
2019/10/07 02:55:16;;;;;;;3.8;3.5;;;;;;;8.69;100;94898.88;;;;
2019/10/07 02:56:17;;;;;;;3.8;3.5;;;;;;;8.69;100;94898.88;;;;
2019/10/07 02:57:18;;;;;;;3.8;3.5;;;;;;;8.69;100;94898.88;;;;
2019/10/07 02:59:26;;;;;;;3.8;3.5;;;;;;;8.69;100;94898.88;;;;
2019/10/07 03:00:28;;;;;;;3.8;3.5;;;;;;;8.69;100;94898.88;;;;
2019/10/07 03:01:36;;;;;;;3.8;3.5;;;;;;;8.69;100;94898.88;;;;
2019/10/07 03:02:37;;;;;;;3.8;3.5;;;;;;;8.69;100;94898.88;;;;
2019/10/07 03:03:38;;;;;;;3.8;3.5;;;;;;;8.69;100;94898.88;;;;
2019/10/07 03:04:39;;;;;;;3.8;3.5;;;;;;;8.69;100;94898.88;;;;
2019/10/07 03:05:41;;;;;;;4.8;4.1;;;;;;;8.64;100;94917.99;;;;
2019/10/07 03:06:42;;;;;;;4.8;4.1;;;;;;;8.64;100;94917.99;;;;
2019/10/07 03:07:43;;;;;;;4.8;4.1;;;;;;;8.64;100;94917.99;;;;
2019/10/07 03:08:44;;;;;;;4.8;4.1;;;;;;;8.64;100;94917.99;;;;
2019/10/07 03:09:45;;;;;;;4.8;4.1;;;;;;;8.64;100;94917.99;;;;
2019/10/07 03:10:46;;;;;;;4.8;4.1;;;;;;;8.64;100;94917.99;;;;
2019/10/07 03:11:47;;;;;;;4.8;4.1;;;;;;;8.64;100;94917.99;;;;
2019/10/07 03:12:49;;;;;;;4.8;4.1;;;;;;;8.64;100;94917.99;;;;
2019/10/07 03:13:50;;;;;;;4.8;4.1;;;;;;;8.64;100;94917.99;;;;
2019/10/07 03:14:51;;;;;;;4.8;4.1;;;;;;;8.64;100;94917.99;;;;
2019/10/07 03:15:52;;;;;;;4.8;4.1;;;;;;;8.64;100;94917.99;;;;
2019/10/07 03:16:53;;;;;;;3.75;3.25;;;;;;;8.58;100;94919.87;;;;
2019/10/07 03:17:55;;;;;;;3.75;3.25;;;;;;;8.58;100;94919.87;;;;
2019/10/07 03:18:56;;;;;;;3.75;3.25;;;;;;;8.58;100;94919.87;;;;
2019/10/07 03:19:57;;;;;;;3.75;3.25;;;;;;;8.58;100;94919.87;;;;
2019/10/07 03:20:59;;;;;;;3.75;3.25;;;;;;;8.58;100;94919.87;;;;
2019/10/07 03:22:00;;;;;;;3.75;3.25;;;;;;;8.58;100;94919.87;;;;
2019/10/07 03:23:01;;;;;;;3.75;3.25;;;;;;;8.58;100;94919.87;;;;
2019/10/07 03:24:03;;;;;;;3.75;3.25;;;;;;;8.58;100;94919.87;;;;
2019/10/07 03:25:04;;;;;;;3.75;3.25;;;;;;;8.58;100;94919.87;;;;
2019/10/07 03:26:06;;;;;;;3.75;3.25;;;;;;;8.58;100;94919.87;;;;
2019/10/07 03:27:07;;;;;;;3.95;3.65;;;;;;;8.6;100;94923.94;;;;
2019/10/07 03:30:13;;;;;;;3.95;3.65;;;;;;;8.6;100;94923.94;;;;
2019/10/07 03:33:31;;;;;;;3.95;3.65;;;;;;;8.6;100;94923.94;;;;
2019/10/07 03:34:40;;;;;;;3.95;3.65;;;;;;;8.6;100;94923.94;;;;
2019/10/07 03:35:48;;;;;;;3.95;3.65;;;;;;;8.6;100;94923.94;;;;
2019/10/07 03:36:52;;;;;;;3.95;3.65;;;;;;;8.6;100;94923.94;;;;
2019/10/07 03:38:55;;;;;;;4.05;3.65;;;;;;;8.59;100;94944.36;;;;
2019/10/07 03:39:59;;;;;;;4.05;3.65;;;;;;;8.59;100;94944.36;;;;
2019/10/07 03:41:06;;;;;;;4.05;3.65;;;;;;;8.59;100;94944.36;;;;
2019/10/07 03:42:15;;;;;;;4.05;3.65;;;;;;;8.59;100;94944.36;;;;
2019/10/07 03:43:22;;;;;;;4.05;3.65;;;;;;;8.59;100;94944.36;;;;
2019/10/07 03:44:27;;;;;;;4.05;3.65;;;;;;;8.59;100;94944.36;;;;
2019/10/07 03:45:37;;;;;;;4.05;3.65;;;;;;;8.59;100;94944.36;;;;
2019/10/07 03:46:41;;;;;;;4.05;3.65;;;;;;;8.59;100;94944.36;;;;
2019/10/07 03:49:04;;;;;;;4.45;4.05;;;;;;;8.64;100;94957.42;;;;
2019/10/07 03:51:00;;;;;;;4.45;4.05;;;;;;;8.64;100;94957.42;;;;
2019/10/07 03:52:09;;;;;;;4.45;4.05;;;;;;;8.64;100;94957.42;;;;
2019/10/07 03:53:12;;;;;;;4.45;4.05;;;;;;;8.64;100;94957.42;;;;
2019/10/07 03:54:17;;;;;;;4.45;4.05;;;;;;;8.64;100;94957.42;;;;
2019/10/07 03:55:46;;;;;;;4.45;4.05;;;;;;;8.64;100;94957.42;;;;
2019/10/07 03:56:59;;;;;;;4.45;4.05;;;;;;;8.64;100;94957.42;;;;
2019/10/07 04:01:34;;;;;;;6.05;5.1;;;;;;;8.62;100;94969.87;;;;
2019/10/07 04:02:57;;;;;;;6.05;5.1;;;;;;;8.62;100;94969.87;;;;
2019/10/07 04:04:10;;;;;;;6.05;5.1;;;;;;;8.62;100;94969.87;;;;
2019/10/07 04:05:24;;;;;;;6.05;5.1;;;;;;;8.62;100;94969.87;;;;
2019/10/07 04:06:28;;;;;;;6.05;5.1;;;;;;;8.62;100;94969.87;;;;
2019/10/07 04:07:32;;;;;;;6.05;5.1;;;;;;;8.62;100;94969.87;;;;
2019/10/07 04:08:34;;;;;;;6.05;5.1;;;;;;;8.62;100;94969.87;;;;
2019/10/07 04:09:36;;;;;;;5.649999;5.050001;;;;;;;8.66;100;94983.17;;;;
2019/10/07 04:10:37;;;;;;;5.649999;5.050001;;;;;;;8.66;100;94983.17;;;;
2019/10/07 04:12:10;;;;;;;5.649999;5.050001;;;;;;;8.66;100;94983.17;;;;
2019/10/07 04:13:16;;;;;;;5.649999;5.050001;;;;;;;8.66;100;94983.17;;;;
2019/10/07 04:14:22;;;;;;;5.649999;5.050001;;;;;;;8.66;100;94983.17;;;;
2019/10/07 04:15:24;;;;;;;5.649999;5.050001;;;;;;;8.66;100;94983.17;;;;
2019/10/07 04:24:39;;;;;;;5.649999;5.050001;;;;;;;8.66;100;94983.17;;;;
2019/10/07 04:25:42;;;;;;;5.649999;5.050001;;;;;;;8.66;100;94983.17;;;;
2019/10/07 04:26:43;;;;;;;5.649999;5.050001;;;;;;;8.66;100;94983.17;;;;
2019/10/07 04:27:44;;;;;;;5.649999;5.050001;;;;;;;8.66;100;94983.17;;;;
2019/10/07 04:28:45;;;;;;;5.649999;5.050001;;;;;;;8.66;100;94983.17;;;;
2019/10/07 04:29:46;;;;;;;5.649999;5.050001;;;;;;;8.66;100;94983.17;;;;
2019/10/07 04:30:48;;;;;;;6.4;5.75;;;;;;;8.72;100;95010.92;;;;
2019/10/07 04:31:49;;;;;;;6.4;5.75;;;;;;;8.72;100;95010.92;;;;
2019/10/07 04:32:51;;;;;;;6.4;5.75;;;;;;;8.72;100;95010.92;;;;
2019/10/07 04:33:52;;;;;;;6.4;5.75;;;;;;;8.72;100;95010.92;;;;
2019/10/07 04:34:53;;;;;;;6.4;5.75;;;;;;;8.72;100;95010.92;;;;
2019/10/07 04:35:55;;;;;;;6.4;5.75;;;;;;;8.72;100;95010.92;;;;
2019/10/07 04:36:56;;;;;;;6.4;5.75;;;;;;;8.72;100;95010.92;;;;
2019/10/07 04:37:59;;;;;;;6.4;5.75;;;;;;;8.72;100;95010.92;;;;
2019/10/07 04:39:04;;;;;;;6.4;5.75;;;;;;;8.72;100;95010.92;;;;
2019/10/07 04:40:05;;;;;;;6.4;5.75;;;;;;;8.72;100;95010.92;;;;
2019/10/07 04:42:10;;;;;;;8.550001;6.2;;;;;;;8.68;100;95033.03;;;;
2019/10/07 04:43:12;;;;;;;8.550001;6.2;;;;;;;8.68;100;95033.03;;;;
2019/10/07 04:44:13;;;;;;;8.550001;6.2;;;;;;;8.68;100;95033.03;;;;
2019/10/07 04:45:15;;;;;;;8.550001;6.2;;;;;;;8.68;100;95033.03;;;;
2019/10/07 04:46:16;;;;;;;8.550001;6.2;;;;;;;8.68;100;95033.03;;;;
2019/10/07 04:47:17;;;;;;;8.550001;6.2;;;;;;;8.68;100;95033.03;;;;
2019/10/07 04:48:18;;;;;;;8.550001;6.2;;;;;;;8.68;100;95033.03;;;;
2019/10/07 04:49:20;;;;;;;8.550001;6.2;;;;;;;8.68;100;95033.03;;;;
2019/10/07 04:50:21;;;;;;;8.550001;6.2;;;;;;;8.68;100;95033.03;;;;
2019/10/07 04:51:22;;;;;;;8.550001;6.2;;;;;;;8.68;100;95033.03;;;;
2019/10/07 04:52:23;;;;;;;8.7;5.9;;;;;;;8.72;100;95041.46;;;;
2019/10/07 04:53:24;;;;;;;8.7;5.9;;;;;;;8.72;100;95041.46;;;;
2019/10/07 04:54:25;;;;;;;8.7;5.9;;;;;;;8.72;100;95041.46;;;;
2019/10/07 04:55:26;;;;;;;8.7;5.9;;;;;;;8.72;100;95041.46;;;;
2019/10/07 04:56:28;;;;;;;8.7;5.9;;;;;;;8.72;100;95041.46;;;;
2019/10/07 04:57:29;;;;;;;8.7;5.9;;;;;;;8.72;100;95041.46;;;;
2019/10/07 04:58:30;;;;;;;8.7;5.9;;;;;;;8.72;100;95041.46;;;;
2019/10/07 04:59:31;;;;;;;8.7;5.9;;;;;;;8.72;100;95041.46;;;;
2019/10/07 05:01:31;;;;;;;8.7;5.9;;;;;;;8.72;100;95041.46;;;;
2019/10/07 05:02:32;;;;;;;7.95;6.200001;;;;;;;8.68;100;95066.26;;;;
2019/10/07 05:03:33;;;;;;;7.95;6.200001;;;;;;;8.68;100;95066.26;;;;
2019/10/07 05:04:34;;;;;;;7.95;6.200001;;;;;;;8.68;100;95066.26;;;;
2019/10/07 05:05:36;;;;;;;7.95;6.200001;;;;;;;8.68;100;95066.26;;;;
2019/10/07 05:06:37;;;;;;;7.95;6.200001;;;;;;;8.68;100;95066.26;;;;
2019/10/07 05:07:38;;;;;;;7.95;6.200001;;;;;;;8.68;100;95066.26;;;;
2019/10/07 05:08:39;;;;;;;7.95;6.200001;;;;;;;8.68;100;95066.26;;;;
2019/10/07 05:09:41;;;;;;;7.95;6.200001;;;;;;;8.68;100;95066.26;;;;
2019/10/07 05:10:43;;;;;;;7.95;6.200001;;;;;;;8.68;100;95066.26;;;;
2019/10/07 05:11:44;;;;;;;7.95;6.200001;;;;;;;8.68;100;95066.26;;;;
2019/10/07 05:12:45;;;;;;;7.95;6.200001;;;;;;;8.68;100;95066.26;;;;
2019/10/07 05:13:46;;;;;;;7.85;6.399999;;;;;;;8.68;100;95082.82;;;;
2019/10/07 05:14:48;;;;;;;7.85;6.399999;;;;;;;8.68;100;95082.82;;;;
2019/10/07 05:15:49;;;;;;;7.85;6.399999;;;;;;;8.68;100;95082.82;;;;
2019/10/07 05:16:50;;;;;;;7.85;6.399999;;;;;;;8.68;100;95082.82;;;;
2019/10/07 05:17:51;;;;;;;7.85;6.399999;;;;;;;8.68;100;95082.82;;;;
2019/10/07 05:18:52;;;;;;;7.85;6.399999;;;;;;;8.68;100;95082.82;;;;
2019/10/07 05:19:53;;;;;;;7.85;6.399999;;;;;;;8.68;100;95082.82;;;;
2019/10/07 05:20:55;;;;;;;7.85;6.399999;;;;;;;8.68;100;95082.82;;;;
2019/10/07 05:21:56;;;;;;;7.85;6.399999;;;;;;;8.68;100;95082.82;;;;
2019/10/07 05:22:57;;;;;;;7.85;6.399999;;;;;;;8.68;100;95082.82;;;;
2019/10/07 05:23:58;;;;;;;7.949999;6.400001;;;;;;;8.6;100;95094.41;;;;
2019/10/07 05:24:59;;;;;;;7.949999;6.400001;;;;;;;8.6;100;95094.41;;;;
2019/10/07 05:26:00;;;;;;;7.949999;6.400001;;;;;;;8.6;100;95094.41;;;;
2019/10/07 05:27:03;;;;;;;7.949999;6.400001;;;;;;;8.6;100;95094.41;;;;
2019/10/07 05:28:04;;;;;;;7.949999;6.400001;;;;;;;8.6;100;95094.41;;;;
2019/10/07 05:29:05;;;;;;;7.949999;6.400001;;;;;;;8.6;100;95094.41;;;;
2019/10/07 05:30:06;;;;;;;7.949999;6.400001;;;;;;;8.6;100;95094.41;;;;
2019/10/07 05:31:08;;;;;;;7.949999;6.400001;;;;;;;8.6;100;95094.41;;;;
2019/10/07 05:32:09;;;;;;;7.949999;6.400001;;;;;;;8.6;100;95094.41;;;;
2019/10/07 05:33:10;;;;;;;7.949999;6.400001;;;;;;;8.6;100;95094.41;;;;
2019/10/07 05:34:11;;;;;;;7.949999;6.400001;;;;;;;8.6;100;95094.41;;;;
2019/10/07 05:35:14;;;;;;;6.050001;5.050001;;;;;;;8.5;100;95101.79;;;;
2019/10/07 05:36:15;;;;;;;6.050001;5.050001;;;;;;;8.5;100;95101.79;;;;
2019/10/07 05:37:16;;;;;;;6.050001;5.050001;;;;;;;8.5;100;95101.79;;;;
2019/10/07 05:42:24;;;;;;;6.050001;5.050001;;;;;;;8.5;100;95101.79;;;;
2019/10/07 05:43:25;;;;;;;6.050001;5.050001;;;;;;;8.5;100;95101.79;;;;
2019/10/07 05:44:28;;;;;;;6.050001;5.050001;;;;;;;8.5;100;95101.79;;;;
2019/10/07 05:45:29;;;;;;;9.349999;5.6;;;;;;;8.36;100;95110.17;;;;
2019/10/07 05:46:30;;;;;;;9.349999;5.6;;;;;;;8.36;100;95110.17;;;;
2019/10/07 05:47:31;;;;;;;9.349999;5.6;;;;;;;8.36;100;95110.17;;;;
2019/10/07 05:48:32;;;;;;;9.349999;5.6;;;;;;;8.36;100;95110.17;;;;
2019/10/07 05:49:50;;;;;;;9.349999;5.6;;;;;;;8.36;100;95110.17;;;;
2019/10/07 05:50:52;;;;;;;9.349999;5.6;;;;;;;8.36;100;95110.17;;;;
2019/10/07 05:51:53;;;;;;;9.349999;5.6;;;;;;;8.36;100;95110.17;;;;
2019/10/07 05:52:54;;;;;;;9.349999;5.6;;;;;;;8.36;100;95110.17;;;;
2019/10/07 05:53:55;;;;;;;9.349999;5.6;;;;;;;8.36;100;95110.17;;;;
2019/10/07 05:54:57;;;;;;;9.349999;5.6;;;;;;;8.36;100;95110.17;;;;
2019/10/07 05:55:58;;;;;;;7.599999;6.05;;;;;;;8.35;100;95125.89;;;;
2019/10/07 05:56:59;;;;;;;7.599999;6.05;;;;;;;8.35;100;95125.89;;;;
2019/10/07 05:58:00;;;;;;;7.599999;6.05;;;;;;;8.35;100;95125.89;;;;
2019/10/07 05:59:07;;;;;;;7.599999;6.05;;;;;;;8.35;100;95125.89;;;;
2019/10/07 06:00:54;;;;;;;7.599999;6.05;;;;;;;8.35;100;95125.89;;;;
2019/10/07 06:02:00;;;;;;;7.599999;6.05;;;;;;;8.35;100;95125.89;;;;
2019/10/07 06:03:02;;;;;;;7.599999;6.05;;;;;;;8.35;100;95125.89;;;;
2019/10/07 06:04:07;;;;;;;7.599999;6.05;;;;;;;8.35;100;95125.89;;;;
2019/10/07 06:05:08;;;;;;;7.599999;6.05;;;;;;;8.35;100;95125.89;;;;
2019/10/07 06:06:09;;;;;;;7.449999;6.050002;;;;;;;8.31;100;95136.8;;;;
2019/10/07 06:07:11;;;;;;;7.449999;6.050002;;;;;;;8.31;100;95136.8;;;;
2019/10/07 06:08:12;;;;;;;7.449999;6.050002;;;;;;;8.31;100;95136.8;;;;
2019/10/07 06:09:13;;;;;;;7.449999;6.050002;;;;;;;8.31;100;95136.8;;;;
2019/10/07 06:10:14;;;;;;;7.449999;6.050002;;;;;;;8.31;100;95136.8;;;;
2019/10/07 06:11:15;;;;;;;7.449999;6.050002;;;;;;;8.31;100;95136.8;;;;
2019/10/07 06:12:17;;;;;;;7.449999;6.050002;;;;;;;8.31;100;95136.8;;;;
2019/10/07 06:13:18;;;;;;;7.449999;6.050002;;;;;;;8.31;100;95136.8;;;;
2019/10/07 06:14:19;;;;;;;7.449999;6.050002;;;;;;;8.31;100;95136.8;;;;
2019/10/07 06:15:20;;;;;;;7.449999;6.050002;;;;;;;8.31;100;95136.8;;;;
2019/10/07 06:16:21;;;;;;;7.449999;6.050002;;;;;;;8.31;100;95136.8;;;;
2019/10/07 06:17:22;;;;;;;8.500001;6.15;;;;;;;8.38;100;95150.98;;;;
2019/10/07 06:18:23;;;;;;;8.500001;6.15;;;;;;;8.38;100;95150.98;;;;
2019/10/07 06:19:25;;;;;;;8.500001;6.15;;;;;;;8.38;100;95150.98;;;;
2019/10/07 06:20:41;;;;;;;8.500001;6.15;;;;;;;8.38;100;95150.98;;;;
2019/10/07 06:21:42;;;;;;;8.500001;6.15;;;;;;;8.38;100;95150.98;;;;
2019/10/07 06:22:43;;;;;;;8.500001;6.15;;;;;;;8.38;100;95150.98;;;;
2019/10/07 06:23:44;;;;;;;8.500001;6.15;;;;;;;8.38;100;95150.98;;;;
2019/10/07 06:24:45;;;;;;;8.500001;6.15;;;;;;;8.38;100;95150.98;;;;
2019/10/07 06:25:47;;;;;;;8.500001;6.15;;;;;;;8.38;100;95150.98;;;;
2019/10/07 06:26:48;;;;;;;8.500001;6.15;;;;;;;8.38;100;95150.98;;;;
2019/10/07 06:27:49;;;;;;;10.65;6.05;;;;;;;8.4;100;95167.31;;;;
2019/10/07 06:28:50;;;;;;;10.65;6.05;;;;;;;8.4;100;95167.31;;;;
2019/10/07 06:29:51;;;;;;;10.65;6.05;;;;;;;8.4;100;95167.31;;;;
2019/10/07 06:30:52;;;;;;;10.65;6.05;;;;;;;8.4;100;95167.31;;;;
2019/10/07 06:31:53;;;;;;;10.65;6.05;;;;;;;8.4;100;95167.31;;;;
2019/10/07 06:32:55;;;;;;;10.65;6.05;;;;;;;8.4;100;95167.31;;;;
2019/10/07 06:33:56;;;;;;;10.65;6.05;;;;;;;8.4;100;95167.31;;;;
2019/10/07 06:34:57;;;;;;;10.65;6.05;;;;;;;8.4;100;95167.31;;;;
2019/10/07 06:35:58;;;;;;;10.65;6.05;;;;;;;8.4;100;95167.31;;;;
2019/10/07 06:36:59;;;;;;;10.65;6.05;;;;;;;8.4;100;95167.31;;;;
2019/10/07 06:38:00;;;;;;;10.7;6.65;;;;;;;8.52;100;95187.06;;;;
2019/10/07 06:39:01;;;;;;;10.7;6.65;;;;;;;8.52;100;95187.06;;;;
2019/10/07 06:40:04;;;;;;;10.7;6.65;;;;;;;8.52;100;95187.06;;;;
2019/10/07 06:41:05;;;;;;;10.7;6.65;;;;;;;8.52;100;95187.06;;;;
2019/10/07 06:42:06;;;;;;;10.7;6.65;;;;;;;8.52;100;95187.06;;;;
2019/10/07 06:43:07;;;;;;;10.7;6.65;;;;;;;8.52;100;95187.06;;;;
2019/10/07 06:44:09;;;;;;;10.7;6.65;;;;;;;8.52;100;95187.06;;;;
2019/10/07 06:45:10;;;;;;;10.7;6.65;;;;;;;8.52;100;95187.06;;;;
2019/10/07 06:46:11;;;;;;;10.7;6.65;;;;;;;8.52;100;95187.06;;;;
2019/10/07 06:47:12;;;;;;;10.7;6.65;;;;;;;8.52;100;95187.06;;;;
2019/10/07 06:48:13;;;;;;;10.7;6.65;;;;;;;8.52;100;95187.06;;;;